sensor_id;sensor_type;location;lat;lon;timestamp;P1;durP1;ratioP1;P2;durP2;ratioP2
1140;SDS011;559;48.628;8.924;2023-12-04T00:01:14;77.00;;;73.40;;
1140;SDS011;559;48.628;8.924;2023-12-04T00:03:41;80.43;;;76.38;;
1140;SDS011;559;48.628;8.924;2023-12-04T00:06:07;83.03;;;79.20;;
1140;SDS011;559;48.628;8.924;2023-12-04T00:08:35;88.25;;;84.25;;
1140;SDS011;559;48.628;8.924;2023-12-04T00:11:02;76.90;;;73.03;;
1140;SDS011;559;48.628;8.924;2023-12-04T00:13:29;79.55;;;75.65;;
1140;SDS011;559;48.628;8.924;2023-12-04T00:15:55;78.70;;;74.85;;
1140;SDS011;559;48.628;8.924;2023-12-04T00:18:23;80.55;;;76.88;;
1140;SDS011;559;48.628;8.924;2023-12-04T00:20:49;82.03;;;77.50;;
1140;SDS011;559;48.628;8.924;2023-12-04T00:23:16;87.72;;;83.78;;
1140;SDS011;559;48.628;8.924;2023-12-04T00:25:42;85.82;;;82.22;;
1140;SDS011;559;48.628;8.924;2023-12-04T00:28:09;81.75;;;77.63;;
1140;SDS011;559;48.628;8.924;2023-12-04T00:30:35;79.35;;;75.72;;
1140;SDS011;559;48.628;8.924;2023-12-04T00:33:02;78.68;;;74.82;;
1140;SDS011;559;48.628;8.924;2023-12-04T00:35:30;80.65;;;76.45;;
1140;SDS011;559;48.628;8.924;2023-12-04T00:37:56;78.88;;;74.78;;
1140;SDS011;559;48.628;8.924;2023-12-04T00:40:23;77.53;;;73.78;;
1140;SDS011;559;48.628;8.924;2023-12-04T00:42:50;72.05;;;68.90;;
1140;SDS011;559;48.628;8.924;2023-12-04T00:45:16;69.18;;;65.78;;
1140;SDS011;559;48.628;8.924;2023-12-04T00:47:42;74.38;;;70.88;;
1140;SDS011;559;48.628;8.924;2023-12-04T00:50:10;74.57;;;71.15;;
1140;SDS011;559;48.628;8.924;2023-12-04T00:52:38;75.45;;;71.93;;
1140;SDS011;559;48.628;8.924;2023-12-04T00:55:05;75.82;;;71.60;;
1140;SDS011;559;48.628;8.924;2023-12-04T00:57:32;74.80;;;71.20;;
1140;SDS011;559;48.628;8.924;2023-12-04T00:59:58;74.05;;;70.25;;
1140;SDS011;559;48.628;8.924;2023-12-04T01:02:25;74.50;;;70.82;;
1140;SDS011;559;48.628;8.924;2023-12-04T01:04:51;76.50;;;72.40;;
1140;SDS011;559;48.628;8.924;2023-12-04T01:07:18;77.10;;;73.20;;
1140;SDS011;559;48.628;8.924;2023-12-04T01:09:46;81.28;;;77.47;;
1140;SDS011;559;48.628;8.924;2023-12-04T01:12:12;79.65;;;75.50;;
1140;SDS011;559;48.628;8.924;2023-12-04T01:14:39;84.57;;;80.10;;
1140;SDS011;559;48.628;8.924;2023-12-04T01:17:05;79.05;;;75.00;;
1140;SDS011;559;48.628;8.924;2023-12-04T01:19:32;77.35;;;73.55;;
1140;SDS011;559;48.628;8.924;2023-12-04T01:21:59;73.88;;;70.07;;
1140;SDS011;559;48.628;8.924;2023-12-04T01:24:25;77.60;;;73.25;;
1140;SDS011;559;48.628;8.924;2023-12-04T01:26:53;77.55;;;73.72;;
1140;SDS011;559;48.628;8.924;2023-12-04T01:29:19;83.15;;;79.32;;
1140;SDS011;559;48.628;8.924;2023-12-04T01:31:46;83.88;;;79.78;;
1140;SDS011;559;48.628;8.924;2023-12-04T01:34:12;85.75;;;81.57;;
1140;SDS011;559;48.628;8.924;2023-12-04T01:36:39;82.50;;;78.35;;
1140;SDS011;559;48.628;8.924;2023-12-04T01:39:06;85.43;;;81.05;;
1140;SDS011;559;48.628;8.924;2023-12-04T01:41:33;85.25;;;80.88;;
1140;SDS011;559;48.628;8.924;2023-12-04T01:44:01;82.60;;;78.70;;
1140;SDS011;559;48.628;8.924;2023-12-04T01:46:27;83.68;;;79.78;;
1140;SDS011;559;48.628;8.924;2023-12-04T01:48:54;82.97;;;79.28;;
1140;SDS011;559;48.628;8.924;2023-12-04T01:51:21;81.28;;;77.68;;
1140;SDS011;559;48.628;8.924;2023-12-04T01:53:48;77.70;;;74.00;;
1140;SDS011;559;48.628;8.924;2023-12-04T01:56:15;79.20;;;75.60;;
1140;SDS011;559;48.628;8.924;2023-12-04T01:58:42;77.18;;;73.75;;
1140;SDS011;559;48.628;8.924;2023-12-04T02:01:11;79.15;;;75.50;;
1140;SDS011;559;48.628;8.924;2023-12-04T02:03:38;80.22;;;76.07;;
1140;SDS011;559;48.628;8.924;2023-12-04T02:06:04;70.78;;;67.07;;
1140;SDS011;559;48.628;8.924;2023-12-04T02:08:31;69.15;;;65.93;;
1140;SDS011;559;48.628;8.924;2023-12-04T02:10:58;71.38;;;67.85;;
1140;SDS011;559;48.628;8.924;2023-12-04T02:13:25;75.25;;;71.65;;
1140;SDS011;559;48.628;8.924;2023-12-04T02:15:53;66.35;;;63.03;;
1140;SDS011;559;48.628;8.924;2023-12-04T02:18:21;66.25;;;63.05;;
1140;SDS011;559;48.628;8.924;2023-12-04T02:20:48;67.70;;;64.32;;
1140;SDS011;559;48.628;8.924;2023-12-04T02:23:14;69.10;;;65.45;;
1140;SDS011;559;48.628;8.924;2023-12-04T02:25:42;67.15;;;63.65;;
1140;SDS011;559;48.628;8.924;2023-12-04T02:28:10;69.50;;;66.00;;
1140;SDS011;559;48.628;8.924;2023-12-04T02:30:37;67.68;;;64.32;;
1140;SDS011;559;48.628;8.924;2023-12-04T02:33:05;74.50;;;70.50;;
1140;SDS011;559;48.628;8.924;2023-12-04T02:35:32;77.25;;;73.25;;
1140;SDS011;559;48.628;8.924;2023-12-04T02:38:00;74.38;;;70.78;;
1140;SDS011;559;48.628;8.924;2023-12-04T02:40:27;71.28;;;67.55;;
1140;SDS011;559;48.628;8.924;2023-12-04T02:42:55;74.82;;;71.30;;
1140;SDS011;559;48.628;8.924;2023-12-04T02:45:21;78.13;;;74.30;;
1140;SDS011;559;48.628;8.924;2023-12-04T02:47:48;81.80;;;78.07;;
1140;SDS011;559;48.628;8.924;2023-12-04T02:50:14;76.80;;;72.95;;
1140;SDS011;559;48.628;8.924;2023-12-04T02:52:41;71.30;;;67.85;;
1140;SDS011;559;48.628;8.924;2023-12-04T02:55:07;77.88;;;74.13;;
1140;SDS011;559;48.628;8.924;2023-12-04T02:57:34;76.78;;;72.93;;
1140;SDS011;559;48.628;8.924;2023-12-04T03:00:02;74.95;;;71.30;;
1140;SDS011;559;48.628;8.924;2023-12-04T03:02:29;72.88;;;69.68;;
1140;SDS011;559;48.628;8.924;2023-12-04T03:04:56;79.32;;;75.57;;
1140;SDS011;559;48.628;8.924;2023-12-04T03:07:22;78.15;;;74.50;;
1140;SDS011;559;48.628;8.924;2023-12-04T03:09:49;80.22;;;76.80;;
1140;SDS011;559;48.628;8.924;2023-12-04T03:12:16;79.88;;;76.38;;
1140;SDS011;559;48.628;8.924;2023-12-04T03:14:42;67.30;;;64.15;;
1140;SDS011;559;48.628;8.924;2023-12-04T03:17:10;69.68;;;66.32;;
1140;SDS011;559;48.628;8.924;2023-12-04T03:19:37;68.82;;;65.60;;
1140;SDS011;559;48.628;8.924;2023-12-04T03:22:03;69.75;;;66.25;;
1140;SDS011;559;48.628;8.924;2023-12-04T03:24:30;71.93;;;68.38;;
1140;SDS011;559;48.628;8.924;2023-12-04T03:26:56;72.82;;;69.38;;
1140;SDS011;559;48.628;8.924;2023-12-04T03:29:23;72.90;;;69.20;;
1140;SDS011;559;48.628;8.924;2023-12-04T03:31:49;72.85;;;69.35;;
1140;SDS011;559;48.628;8.924;2023-12-04T03:34:17;73.30;;;69.57;;
1140;SDS011;559;48.628;8.924;2023-12-04T03:36:44;70.55;;;66.70;;
1140;SDS011;559;48.628;8.924;2023-12-04T03:39:10;70.93;;;67.53;;
1140;SDS011;559;48.628;8.924;2023-12-04T03:41:37;74.57;;;70.90;;
1140;SDS011;559;48.628;8.924;2023-12-04T03:44:03;80.90;;;77.00;;
1140;SDS011;559;48.628;8.924;2023-12-04T03:46:30;79.40;;;75.75;;
1140;SDS011;559;48.628;8.924;2023-12-04T03:48:56;81.72;;;77.80;;
1140;SDS011;559;48.628;8.924;2023-12-04T03:51:24;79.53;;;75.53;;
1140;SDS011;559;48.628;8.924;2023-12-04T03:53:50;76.55;;;72.85;;
1140;SDS011;559;48.628;8.924;2023-12-04T03:56:17;77.28;;;73.30;;
1140;SDS011;559;48.628;8.924;2023-12-04T03:58:43;79.70;;;75.75;;
1140;SDS011;559;48.628;8.924;2023-12-04T04:01:10;80.07;;;76.38;;
1140;SDS011;559;48.628;8.924;2023-12-04T04:03:36;80.82;;;77.00;;
1140;SDS011;559;48.628;8.924;2023-12-04T04:06:03;78.47;;;74.55;;
1140;SDS011;559;48.628;8.924;2023-12-04T04:08:31;75.80;;;72.10;;
1140;SDS011;559;48.628;8.924;2023-12-04T04:10:58;68.57;;;65.32;;
1140;SDS011;559;48.628;8.924;2023-12-04T04:13:24;66.70;;;63.10;;
1140;SDS011;559;48.628;8.924;2023-12-04T04:15:51;69.35;;;65.18;;
1140;SDS011;559;48.628;8.924;2023-12-04T04:18:17;64.80;;;60.80;;
1140;SDS011;559;48.628;8.924;2023-12-04T04:20:44;63.90;;;60.03;;
1140;SDS011;559;48.628;8.924;2023-12-04T04:23:10;61.80;;;58.10;;
1140;SDS011;559;48.628;8.924;2023-12-04T04:25:38;61.45;;;57.85;;
1140;SDS011;559;48.628;8.924;2023-12-04T04:28:04;62.60;;;59.10;;
1140;SDS011;559;48.628;8.924;2023-12-04T04:30:31;62.72;;;58.40;;
1140;SDS011;559;48.628;8.924;2023-12-04T04:32:57;61.30;;;57.80;;
1140;SDS011;559;48.628;8.924;2023-12-04T04:35:24;61.30;;;57.88;;
1140;SDS011;559;48.628;8.924;2023-12-04T04:37:50;64.45;;;60.35;;
1140;SDS011;559;48.628;8.924;2023-12-04T04:40:17;67.93;;;63.95;;
1140;SDS011;559;48.628;8.924;2023-12-04T04:42:45;70.85;;;66.32;;
1140;SDS011;559;48.628;8.924;2023-12-04T04:45:13;69.47;;;65.38;;
1140;SDS011;559;48.628;8.924;2023-12-04T04:47:39;69.50;;;65.40;;
1140;SDS011;559;48.628;8.924;2023-12-04T04:50:06;67.38;;;63.33;;
1140;SDS011;559;48.628;8.924;2023-12-04T04:52:33;67.13;;;63.47;;
1140;SDS011;559;48.628;8.924;2023-12-04T04:54:59;65.88;;;62.00;;
1140;SDS011;559;48.628;8.924;2023-12-04T04:57:26;68.03;;;64.28;;
1140;SDS011;559;48.628;8.924;2023-12-04T04:59:54;66.95;;;63.00;;
1140;SDS011;559;48.628;8.924;2023-12-04T05:02:20;63.78;;;59.33;;
1140;SDS011;559;48.628;8.924;2023-12-04T05:04:47;62.88;;;58.85;;
1140;SDS011;559;48.628;8.924;2023-12-04T05:07:13;61.65;;;57.85;;
1140;SDS011;559;48.628;8.924;2023-12-04T05:09:40;62.47;;;58.85;;
1140;SDS011;559;48.628;8.924;2023-12-04T05:12:07;61.30;;;56.92;;
1140;SDS011;559;48.628;8.924;2023-12-04T05:14:33;61.42;;;57.95;;
1140;SDS011;559;48.628;8.924;2023-12-04T05:17:01;62.88;;;58.88;;
1140;SDS011;559;48.628;8.924;2023-12-04T05:19:28;62.20;;;58.38;;
1140;SDS011;559;48.628;8.924;2023-12-04T05:21:54;63.38;;;59.28;;
1140;SDS011;559;48.628;8.924;2023-12-04T05:24:21;65.88;;;61.80;;
1140;SDS011;559;48.628;8.924;2023-12-04T05:26:47;64.07;;;59.95;;
1140;SDS011;559;48.628;8.924;2023-12-04T05:29:14;66.95;;;62.90;;
1140;SDS011;559;48.628;8.924;2023-12-04T05:31:40;67.53;;;63.35;;
1140;SDS011;559;48.628;8.924;2023-12-04T05:34:08;64.80;;;61.10;;
1140;SDS011;559;48.628;8.924;2023-12-04T05:36:34;64.88;;;60.60;;
1140;SDS011;559;48.628;8.924;2023-12-04T05:39:01;66.65;;;62.20;;
1140;SDS011;559;48.628;8.924;2023-12-04T05:41:29;68.07;;;63.95;;
1140;SDS011;559;48.628;8.924;2023-12-04T05:43:56;68.20;;;64.22;;
1140;SDS011;559;48.628;8.924;2023-12-04T05:46:22;72.32;;;68.18;;
1140;SDS011;559;48.628;8.924;2023-12-04T05:48:49;67.70;;;63.63;;
1140;SDS011;559;48.628;8.924;2023-12-04T05:51:16;70.15;;;66.05;;
1140;SDS011;559;48.628;8.924;2023-12-04T05:53:43;71.22;;;66.75;;
1140;SDS011;559;48.628;8.924;2023-12-04T05:56:10;67.78;;;63.78;;
1140;SDS011;559;48.628;8.924;2023-12-04T05:58:36;69.10;;;64.85;;
1140;SDS011;559;48.628;8.924;2023-12-04T06:01:03;70.25;;;66.43;;
1140;SDS011;559;48.628;8.924;2023-12-04T06:03:31;69.68;;;65.38;;
1140;SDS011;559;48.628;8.924;2023-12-04T06:05:57;70.28;;;66.03;;
1140;SDS011;559;48.628;8.924;2023-12-04T06:08:25;70.82;;;66.53;;
1140;SDS011;559;48.628;8.924;2023-12-04T06:10:52;70.88;;;66.80;;
1140;SDS011;559;48.628;8.924;2023-12-04T06:13:18;71.88;;;67.78;;
1140;SDS011;559;48.628;8.924;2023-12-04T06:15:45;74.72;;;70.03;;
1140;SDS011;559;48.628;8.924;2023-12-04T06:18:10;71.50;;;67.10;;
1140;SDS011;559;48.628;8.924;2023-12-04T06:20:37;70.50;;;66.40;;
1140;SDS011;559;48.628;8.924;2023-12-04T06:23:03;69.95;;;65.07;;
1140;SDS011;559;48.628;8.924;2023-12-04T06:25:32;65.55;;;61.50;;
1140;SDS011;559;48.628;8.924;2023-12-04T06:27:59;67.32;;;63.08;;
1140;SDS011;559;48.628;8.924;2023-12-04T06:30:26;66.68;;;62.65;;
1140;SDS011;559;48.628;8.924;2023-12-04T06:32:53;66.88;;;62.78;;
1140;SDS011;559;48.628;8.924;2023-12-04T06:35:20;68.75;;;64.35;;
1140;SDS011;559;48.628;8.924;2023-12-04T06:37:47;67.60;;;63.55;;
1140;SDS011;559;48.628;8.924;2023-12-04T06:40:14;69.65;;;65.30;;
1140;SDS011;559;48.628;8.924;2023-12-04T06:42:43;66.60;;;62.58;;
1140;SDS011;559;48.628;8.924;2023-12-04T06:45:11;66.70;;;62.55;;
1140;SDS011;559;48.628;8.924;2023-12-04T06:47:38;66.30;;;62.08;;
1140;SDS011;559;48.628;8.924;2023-12-04T06:50:06;65.80;;;61.58;;
1140;SDS011;559;48.628;8.924;2023-12-04T06:52:33;68.88;;;64.43;;
1140;SDS011;559;48.628;8.924;2023-12-04T06:55:00;70.13;;;65.72;;
1140;SDS011;559;48.628;8.924;2023-12-04T06:57:27;68.35;;;63.97;;
1140;SDS011;559;48.628;8.924;2023-12-04T06:59:55;62.30;;;58.00;;
1140;SDS011;559;48.628;8.924;2023-12-04T07:02:21;60.30;;;56.67;;
1140;SDS011;559;48.628;8.924;2023-12-04T07:04:47;65.07;;;61.17;;
1140;SDS011;559;48.628;8.924;2023-12-04T07:07:14;64.85;;;60.75;;
1140;SDS011;559;48.628;8.924;2023-12-04T07:09:41;66.40;;;62.55;;
1140;SDS011;559;48.628;8.924;2023-12-04T07:12:07;64.78;;;60.55;;
1140;SDS011;559;48.628;8.924;2023-12-04T07:14:34;67.95;;;63.42;;
1140;SDS011;559;48.628;8.924;2023-12-04T07:17:01;63.60;;;59.33;;
1140;SDS011;559;48.628;8.924;2023-12-04T07:19:28;64.35;;;60.28;;
1140;SDS011;559;48.628;8.924;2023-12-04T07:21:55;66.18;;;62.15;;
1140;SDS011;559;48.628;8.924;2023-12-04T07:24:22;65.50;;;61.53;;
1140;SDS011;559;48.628;8.924;2023-12-04T07:26:48;69.65;;;64.93;;
1140;SDS011;559;48.628;8.924;2023-12-04T07:29:15;87.50;;;80.35;;
1140;SDS011;559;48.628;8.924;2023-12-04T07:31:41;101.30;;;92.30;;
1140;SDS011;559;48.628;8.924;2023-12-04T07:34:10;100.47;;;91.18;;
1140;SDS011;559;48.628;8.924;2023-12-04T07:36:37;102.32;;;92.82;;
1140;SDS011;559;48.628;8.924;2023-12-04T07:39:04;86.32;;;79.32;;
1140;SDS011;559;48.628;8.924;2023-12-04T07:41:31;74.50;;;69.57;;
1140;SDS011;559;48.628;8.924;2023-12-04T07:43:58;81.40;;;75.13;;
1140;SDS011;559;48.628;8.924;2023-12-04T07:46:24;79.25;;;74.00;;
1140;SDS011;559;48.628;8.924;2023-12-04T07:48:51;90.50;;;83.40;;
1140;SDS011;559;48.628;8.924;2023-12-04T07:51:19;87.22;;;80.60;;
1140;SDS011;559;48.628;8.924;2023-12-04T07:53:45;75.38;;;70.40;;
1140;SDS011;559;48.628;8.924;2023-12-04T07:56:12;72.65;;;67.70;;
1140;SDS011;559;48.628;8.924;2023-12-04T07:58:39;68.13;;;64.25;;
1140;SDS011;559;48.628;8.924;2023-12-04T08:01:06;70.30;;;65.90;;
1140;SDS011;559;48.628;8.924;2023-12-04T08:03:33;71.25;;;66.50;;
1140;SDS011;559;48.628;8.924;2023-12-04T08:05:59;67.47;;;63.28;;
1140;SDS011;559;48.628;8.924;2023-12-04T08:08:27;76.18;;;71.25;;
1140;SDS011;559;48.628;8.924;2023-12-04T08:10:54;73.10;;;68.60;;
1140;SDS011;559;48.628;8.924;2023-12-04T08:13:20;71.35;;;67.10;;
1140;SDS011;559;48.628;8.924;2023-12-04T08:15:46;73.85;;;69.18;;
1140;SDS011;559;48.628;8.924;2023-12-04T08:18:13;78.30;;;73.13;;
1140;SDS011;559;48.628;8.924;2023-12-04T08:20:40;75.88;;;71.18;;
1140;SDS011;559;48.628;8.924;2023-12-04T08:23:07;75.85;;;70.80;;
1140;SDS011;559;48.628;8.924;2023-12-04T08:25:35;80.38;;;74.88;;
1140;SDS011;559;48.628;8.924;2023-12-04T08:28:03;72.45;;;67.93;;
1140;SDS011;559;48.628;8.924;2023-12-04T08:30:30;72.65;;;68.35;;
1140;SDS011;559;48.628;8.924;2023-12-04T08:32:56;72.30;;;67.32;;
1140;SDS011;559;48.628;8.924;2023-12-04T08:35:23;74.20;;;69.65;;
1140;SDS011;559;48.628;8.924;2023-12-04T08:37:49;75.55;;;70.95;;
1140;SDS011;559;48.628;8.924;2023-12-04T08:40:16;76.47;;;72.07;;
1140;SDS011;559;48.628;8.924;2023-12-04T08:42:44;79.68;;;75.22;;
1140;SDS011;559;48.628;8.924;2023-12-04T08:45:11;82.40;;;77.57;;
1140;SDS011;559;48.628;8.924;2023-12-04T08:47:38;80.30;;;75.45;;
1140;SDS011;559;48.628;8.924;2023-12-04T08:50:05;78.90;;;74.63;;
1140;SDS011;559;48.628;8.924;2023-12-04T08:52:32;73.93;;;69.65;;
1140;SDS011;559;48.628;8.924;2023-12-04T08:54:59;74.53;;;70.40;;
1140;SDS011;559;48.628;8.924;2023-12-04T08:57:25;76.10;;;72.00;;
1140;SDS011;559;48.628;8.924;2023-12-04T08:59:53;79.47;;;75.32;;
1140;SDS011;559;48.628;8.924;2023-12-04T09:02:20;82.50;;;77.60;;
1140;SDS011;559;48.628;8.924;2023-12-04T09:04:46;77.50;;;73.20;;
1140;SDS011;559;48.628;8.924;2023-12-04T09:07:12;78.35;;;73.65;;
1140;SDS011;559;48.628;8.924;2023-12-04T09:09:39;73.10;;;68.95;;
1140;SDS011;559;48.628;8.924;2023-12-04T09:12:06;73.82;;;69.47;;
1140;SDS011;559;48.628;8.924;2023-12-04T09:14:34;77.10;;;72.30;;
1140;SDS011;559;48.628;8.924;2023-12-04T09:17:02;76.65;;;72.15;;
1140;SDS011;559;48.628;8.924;2023-12-04T09:19:29;75.40;;;70.90;;
1140;SDS011;559;48.628;8.924;2023-12-04T09:21:56;71.13;;;66.97;;
1140;SDS011;559;48.628;8.924;2023-12-04T09:24:23;75.55;;;70.78;;
1140;SDS011;559;48.628;8.924;2023-12-04T09:26:49;78.78;;;74.38;;
1140;SDS011;559;48.628;8.924;2023-12-04T09:29:16;73.13;;;68.70;;
1140;SDS011;559;48.628;8.924;2023-12-04T09:31:42;73.57;;;69.20;;
1140;SDS011;559;48.628;8.924;2023-12-04T09:34:10;70.28;;;66.07;;
1140;SDS011;559;48.628;8.924;2023-12-04T09:36:37;65.70;;;61.63;;
1140;SDS011;559;48.628;8.924;2023-12-04T09:39:03;60.70;;;57.20;;
1140;SDS011;559;48.628;8.924;2023-12-04T09:41:30;61.33;;;57.67;;
1140;SDS011;559;48.628;8.924;2023-12-04T09:43:57;68.07;;;63.85;;
1140;SDS011;559;48.628;8.924;2023-12-04T09:46:24;69.78;;;65.82;;
1140;SDS011;559;48.628;8.924;2023-12-04T09:48:51;68.75;;;65.13;;
1140;SDS011;559;48.628;8.924;2023-12-04T09:51:20;68.00;;;64.40;;
1140;SDS011;559;48.628;8.924;2023-12-04T09:53:48;70.68;;;67.13;;
1140;SDS011;559;48.628;8.924;2023-12-04T09:56:15;75.65;;;71.85;;
1140;SDS011;559;48.628;8.924;2023-12-04T09:58:43;81.05;;;76.40;;
1140;SDS011;559;48.628;8.924;2023-12-04T10:01:10;71.93;;;68.00;;
1140;SDS011;559;48.628;8.924;2023-12-04T10:03:37;94.68;;;88.15;;
1140;SDS011;559;48.628;8.924;2023-12-04T10:06:05;67.43;;;64.03;;
1140;SDS011;559;48.628;8.924;2023-12-04T10:08:33;76.30;;;72.65;;
1140;SDS011;559;48.628;8.924;2023-12-04T10:11:00;68.03;;;64.32;;
1140;SDS011;559;48.628;8.924;2023-12-04T10:13:27;69.13;;;65.63;;
1140;SDS011;559;48.628;8.924;2023-12-04T10:15:53;71.03;;;67.35;;
1140;SDS011;559;48.628;8.924;2023-12-04T10:18:26;71.70;;;67.85;;
1140;SDS011;559;48.628;8.924;2023-12-04T10:20:54;73.45;;;69.90;;
1140;SDS011;559;48.628;8.924;2023-12-04T10:23:21;82.20;;;78.18;;
1140;SDS011;559;48.628;8.924;2023-12-04T10:25:49;85.80;;;81.20;;
1140;SDS011;559;48.628;8.924;2023-12-04T10:28:16;70.60;;;67.20;;
1140;SDS011;559;48.628;8.924;2023-12-04T10:30:44;72.38;;;68.88;;
1140;SDS011;559;48.628;8.924;2023-12-04T10:33:11;72.72;;;69.13;;
1140;SDS011;559;48.628;8.924;2023-12-04T10:35:39;76.88;;;73.30;;
1140;SDS011;559;48.628;8.924;2023-12-04T10:38:06;71.47;;;68.35;;
1140;SDS011;559;48.628;8.924;2023-12-04T10:40:33;71.35;;;68.35;;
1140;SDS011;559;48.628;8.924;2023-12-04T10:43:12;77.22;;;73.88;;
1140;SDS011;559;48.628;8.924;2023-12-04T10:45:41;73.38;;;70.35;;
1140;SDS011;559;48.628;8.924;2023-12-04T10:48:08;80.88;;;77.28;;
1140;SDS011;559;48.628;8.924;2023-12-04T10:50:35;74.93;;;71.47;;
1140;SDS011;559;48.628;8.924;2023-12-04T10:53:03;82.57;;;78.82;;
1140;SDS011;559;48.628;8.924;2023-12-04T10:55:30;76.07;;;72.72;;
1140;SDS011;559;48.628;8.924;2023-12-04T10:57:56;76.38;;;72.53;;
1140;SDS011;559;48.628;8.924;2023-12-04T11:00:24;66.53;;;63.88;;
1140;SDS011;559;48.628;8.924;2023-12-04T11:02:52;68.47;;;65.03;;
1140;SDS011;559;48.628;8.924;2023-12-04T11:05:23;58.30;;;56.10;;
1140;SDS011;559;48.628;8.924;2023-12-04T11:07:50;59.83;;;57.42;;
1140;SDS011;559;48.628;8.924;2023-12-04T11:10:18;59.92;;;57.35;;
1140;SDS011;559;48.628;8.924;2023-12-04T11:12:48;61.50;;;58.45;;
1140;SDS011;559;48.628;8.924;2023-12-04T11:15:19;57.05;;;54.53;;
1140;SDS011;559;48.628;8.924;2023-12-04T11:17:49;57.45;;;54.95;;
1140;SDS011;559;48.628;8.924;2023-12-04T11:20:18;63.97;;;61.17;;
1140;SDS011;559;48.628;8.924;2023-12-04T11:22:48;70.55;;;67.18;;
1140;SDS011;559;48.628;8.924;2023-12-04T11:25:15;70.55;;;67.60;;
1140;SDS011;559;48.628;8.924;2023-12-04T11:27:42;72.55;;;69.30;;
1140;SDS011;559;48.628;8.924;2023-12-04T11:30:09;72.15;;;68.75;;
1140;SDS011;559;48.628;8.924;2023-12-04T11:32:43;67.95;;;64.78;;
1140;SDS011;559;48.628;8.924;2023-12-04T11:35:14;67.22;;;63.92;;
1140;SDS011;559;48.628;8.924;2023-12-04T11:37:42;68.53;;;64.82;;
1140;SDS011;559;48.628;8.924;2023-12-04T11:40:11;69.50;;;66.10;;
1140;SDS011;559;48.628;8.924;2023-12-04T11:42:38;66.80;;;63.30;;
1140;SDS011;559;48.628;8.924;2023-12-04T11:45:05;63.70;;;60.15;;
1140;SDS011;559;48.628;8.924;2023-12-04T11:47:43;69.65;;;65.85;;
1140;SDS011;559;48.628;8.924;2023-12-04T11:50:16;66.93;;;63.35;;
1140;SDS011;559;48.628;8.924;2023-12-04T11:52:43;67.32;;;63.83;;
1140;SDS011;559;48.628;8.924;2023-12-04T11:55:10;69.88;;;66.38;;
1140;SDS011;559;48.628;8.924;2023-12-04T11:57:37;73.65;;;69.85;;
1140;SDS011;559;48.628;8.924;2023-12-04T12:00:08;76.75;;;72.68;;
1140;SDS011;559;48.628;8.924;2023-12-04T12:02:37;67.72;;;64.28;;
1140;SDS011;559;48.628;8.924;2023-12-04T12:05:04;78.80;;;74.20;;
1140;SDS011;559;48.628;8.924;2023-12-04T12:07:34;83.05;;;78.25;;
1140;SDS011;559;48.628;8.924;2023-12-04T12:10:01;81.53;;;77.35;;
1140;SDS011;559;48.628;8.924;2023-12-04T12:12:27;80.60;;;76.43;;
1140;SDS011;559;48.628;8.924;2023-12-04T12:14:54;71.97;;;68.40;;
1140;SDS011;559;48.628;8.924;2023-12-04T12:17:20;72.22;;;68.28;;
1140;SDS011;559;48.628;8.924;2023-12-04T12:19:47;72.07;;;68.25;;
1140;SDS011;559;48.628;8.924;2023-12-04T12:22:13;68.07;;;64.38;;
1140;SDS011;559;48.628;8.924;2023-12-04T12:24:41;70.13;;;66.30;;
1140;SDS011;559;48.628;8.924;2023-12-04T12:27:24;74.63;;;70.88;;
1140;SDS011;559;48.628;8.924;2023-12-04T12:30:35;72.88;;;69.18;;
1140;SDS011;559;48.628;8.924;2023-12-04T12:33:16;70.13;;;66.32;;
1140;SDS011;559;48.628;8.924;2023-12-04T12:39:27;76.28;;;72.40;;
1140;SDS011;559;48.628;8.924;2023-12-04T12:41:55;76.35;;;72.75;;
1140;SDS011;559;48.628;8.924;2023-12-04T12:44:22;74.47;;;70.72;;
1140;SDS011;559;48.628;8.924;2023-12-04T12:46:50;70.53;;;67.13;;
1140;SDS011;559;48.628;8.924;2023-12-04T12:49:47;71.55;;;67.85;;
1140;SDS011;559;48.628;8.924;2023-12-04T12:52:25;71.20;;;67.90;;
1140;SDS011;559;48.628;8.924;2023-12-04T12:56:40;69.80;;;66.30;;
1140;SDS011;559;48.628;8.924;2023-12-04T13:08:52;66.70;;;63.05;;
1140;SDS011;559;48.628;8.924;2023-12-04T13:12:07;63.08;;;59.58;;
1140;SDS011;559;48.628;8.924;2023-12-04T13:14:57;65.90;;;62.45;;
1140;SDS011;559;48.628;8.924;2023-12-04T13:17:46;65.90;;;62.00;;
1140;SDS011;559;48.628;8.924;2023-12-04T13:20:53;63.50;;;59.90;;
1140;SDS011;559;48.628;8.924;2023-12-04T13:23:21;62.15;;;58.20;;
1140;SDS011;559;48.628;8.924;2023-12-04T13:25:49;57.58;;;54.55;;
1140;SDS011;559;48.628;8.924;2023-12-04T13:28:18;56.95;;;53.78;;
1140;SDS011;559;48.628;8.924;2023-12-04T13:31:04;60.72;;;57.33;;
1140;SDS011;559;48.628;8.924;2023-12-04T13:33:43;60.92;;;57.22;;
1140;SDS011;559;48.628;8.924;2023-12-04T13:36:36;64.13;;;60.28;;
1140;SDS011;559;48.628;8.924;2023-12-04T13:39:23;62.92;;;59.30;;
1140;SDS011;559;48.628;8.924;2023-12-04T13:46:00;67.13;;;63.03;;
1140;SDS011;559;48.628;8.924;2023-12-04T13:48:39;62.17;;;58.42;;
1140;SDS011;559;48.628;8.924;2023-12-04T13:51:09;61.38;;;57.80;;
1140;SDS011;559;48.628;8.924;2023-12-04T13:53:38;62.13;;;58.67;;
1140;SDS011;559;48.628;8.924;2023-12-04T13:56:09;60.13;;;56.42;;
1140;SDS011;559;48.628;8.924;2023-12-04T13:58:50;60.30;;;56.75;;
1140;SDS011;559;48.628;8.924;2023-12-04T14:01:21;59.28;;;56.00;;
1140;SDS011;559;48.628;8.924;2023-12-04T14:03:49;60.72;;;57.13;;
1140;SDS011;559;48.628;8.924;2023-12-04T14:06:16;61.72;;;58.28;;
1140;SDS011;559;48.628;8.924;2023-12-04T14:08:44;59.58;;;56.17;;
1140;SDS011;559;48.628;8.924;2023-12-04T14:11:11;61.53;;;57.50;;
1140;SDS011;559;48.628;8.924;2023-12-04T14:13:39;60.47;;;56.97;;
1140;SDS011;559;48.628;8.924;2023-12-04T14:16:06;57.72;;;54.22;;
1140;SDS011;559;48.628;8.924;2023-12-04T14:18:33;59.70;;;56.17;;
1140;SDS011;559;48.628;8.924;2023-12-04T14:21:00;62.40;;;58.92;;
1140;SDS011;559;48.628;8.924;2023-12-04T14:23:27;60.38;;;56.97;;
1140;SDS011;559;48.628;8.924;2023-12-04T14:25:55;63.15;;;59.55;;
1140;SDS011;559;48.628;8.924;2023-12-04T14:28:21;65.55;;;62.25;;
1140;SDS011;559;48.628;8.924;2023-12-04T14:30:48;61.95;;;58.50;;
1140;SDS011;559;48.628;8.924;2023-12-04T14:33:14;66.38;;;62.67;;
1140;SDS011;559;48.628;8.924;2023-12-04T14:35:41;65.13;;;61.55;;
1140;SDS011;559;48.628;8.924;2023-12-04T14:38:08;67.68;;;63.75;;
1140;SDS011;559;48.628;8.924;2023-12-04T14:40:35;62.03;;;58.42;;
1140;SDS011;559;48.628;8.924;2023-12-04T14:43:03;59.22;;;56.03;;
1140;SDS011;559;48.628;8.924;2023-12-04T14:45:30;64.97;;;61.30;;
1140;SDS011;559;48.628;8.924;2023-12-04T14:47:56;68.10;;;64.05;;
1140;SDS011;559;48.628;8.924;2023-12-04T14:50:23;66.40;;;62.78;;
1140;SDS011;559;48.628;8.924;2023-12-04T14:52:50;64.07;;;60.38;;
1140;SDS011;559;48.628;8.924;2023-12-04T14:55:19;65.15;;;61.33;;
1140;SDS011;559;48.628;8.924;2023-12-04T14:58:07;63.60;;;60.00;;
1140;SDS011;559;48.628;8.924;2023-12-04T15:01:19;60.50;;;57.13;;
1140;SDS011;559;48.628;8.924;2023-12-04T15:04:05;62.60;;;58.80;;
1140;SDS011;559;48.628;8.924;2023-12-04T15:07:02;56.63;;;53.38;;
1140;SDS011;559;48.628;8.924;2023-12-04T15:09:46;56.78;;;53.53;;
1140;SDS011;559;48.628;8.924;2023-12-04T15:12:26;56.35;;;53.35;;
1140;SDS011;559;48.628;8.924;2023-12-04T15:15:02;57.33;;;53.92;;
1140;SDS011;559;48.628;8.924;2023-12-04T15:17:39;59.15;;;55.55;;
1140;SDS011;559;48.628;8.924;2023-12-04T15:20:13;59.40;;;56.10;;
1140;SDS011;559;48.628;8.924;2023-12-04T15:22:56;57.25;;;54.10;;
1140;SDS011;559;48.628;8.924;2023-12-04T15:25:23;80.55;;;74.10;;
1140;SDS011;559;48.628;8.924;2023-12-04T15:27:49;65.07;;;60.45;;